sensor_id;sensor_type;location;lat;lon;timestamp;P1;durP1;ratioP1;P2;durP2;ratioP2
65047;SDS011;52089;51.362;-2.384;2022-08-19T00:03:35;0.30;;;0.20;;
65047;SDS011;52089;51.362;-2.384;2022-08-19T00:07:17;1.23;;;0.90;;
65047;SDS011;52089;51.362;-2.384;2022-08-19T00:10:59;0.40;;;0.30;;
65047;SDS011;52089;51.362;-2.384;2022-08-19T00:14:41;0.30;;;0.20;;
65047;SDS011;52089;51.362;-2.384;2022-08-19T00:18:23;0.70;;;0.13;;
65047;SDS011;52089;51.362;-2.384;2022-08-19T00:22:06;0.43;;;0.20;;
65047;SDS011;52089;51.362;-2.384;2022-08-19T00:25:49;0.10;;;0.10;;
65047;SDS011;52089;51.362;-2.384;2022-08-19T00:29:31;0.23;;;0.10;;
65047;SDS011;52089;51.362;-2.384;2022-08-19T00:33:13;0.50;;;0.10;;
65047;SDS011;52089;51.362;-2.384;2022-08-19T00:36:55;0.77;;;0.10;;
65047;SDS011;52089;51.362;-2.384;2022-08-19T00:40:38;0.63;;;0.20;;
65047;SDS011;52089;51.362;-2.384;2022-08-19T00:44:25;0.20;;;0.10;;
65047;SDS011;52089;51.362;-2.384;2022-08-19T00:48:08;0.43;;;0.10;;
65047;SDS011;52089;51.362;-2.384;2022-08-19T00:51:57;0.70;;;0.17;;
65047;SDS011;52089;51.362;-2.384;2022-08-19T00:55:50;0.80;;;0.17;;
65047;SDS011;52089;51.362;-2.384;2022-08-19T00:59:36;0.50;;;0.10;;
65047;SDS011;52089;51.362;-2.384;2022-08-19T01:03:41;0.87;;;0.10;;
65047;SDS011;52089;51.362;-2.384;2022-08-19T01:07:38;0.40;;;0.10;;
65047;SDS011;52089;51.362;-2.384;2022-08-19T01:11:21;0.87;;;0.20;;
65047;SDS011;52089;51.362;-2.384;2022-08-19T01:15:04;1.20;;;0.20;;
65047;SDS011;52089;51.362;-2.384;2022-08-19T01:18:49;1.07;;;0.13;;
65047;SDS011;52089;51.362;-2.384;2022-08-19T01:22:35;0.80;;;0.27;;
65047;SDS011;52089;51.362;-2.384;2022-08-19T01:26:30;1.73;;;0.30;;
65047;SDS011;52089;51.362;-2.384;2022-08-19T01:30:22;1.23;;;0.28;;
65047;SDS011;52089;51.362;-2.384;2022-08-19T01:34:07;2.30;;;0.40;;
65047;SDS011;52089;51.362;-2.384;2022-08-19T01:41:35;2.70;;;0.50;;
65047;SDS011;52089;51.362;-2.384;2022-08-19T01:45:18;2.67;;;0.40;;
65047;SDS011;52089;51.362;-2.384;2022-08-19T01:49:02;2.13;;;0.33;;
65047;SDS011;52089;51.362;-2.384;2022-08-19T01:52:45;4.17;;;0.40;;
65047;SDS011;52089;51.362;-2.384;2022-08-19T01:56:41;1.30;;;0.30;;
65047;SDS011;52089;51.362;-2.384;2022-08-19T02:00:25;1.77;;;0.40;;
65047;SDS011;52089;51.362;-2.384;2022-08-19T02:04:09;1.80;;;0.40;;
65047;SDS011;52089;51.362;-2.384;2022-08-19T02:07:50;1.27;;;0.30;;
65047;SDS011;52089;51.362;-2.384;2022-08-19T02:11:33;4.70;;;0.60;;
65047;SDS011;52089;51.362;-2.384;2022-08-19T02:15:17;3.50;;;0.43;;
65047;SDS011;52089;51.362;-2.384;2022-08-19T02:19:00;2.47;;;0.43;;
65047;SDS011;52089;51.362;-2.384;2022-08-19T02:22:42;4.87;;;0.80;;
65047;SDS011;52089;51.362;-2.384;2022-08-19T02:26:24;3.20;;;0.60;;
65047;SDS011;52089;51.362;-2.384;2022-08-19T02:30:08;4.80;;;0.67;;
65047;SDS011;52089;51.362;-2.384;2022-08-19T02:33:55;2.50;;;0.60;;
65047;SDS011;52089;51.362;-2.384;2022-08-19T02:37:37;5.10;;;0.70;;
65047;SDS011;52089;51.362;-2.384;2022-08-19T02:41:37;4.20;;;0.90;;
65047;SDS011;52089;51.362;-2.384;2022-08-19T02:45:19;3.93;;;0.73;;
65047;SDS011;52089;51.362;-2.384;2022-08-19T02:49:03;4.73;;;0.87;;
65047;SDS011;52089;51.362;-2.384;2022-08-19T02:52:47;2.00;;;0.60;;
65047;SDS011;52089;51.362;-2.384;2022-08-19T02:56:29;8.53;;;0.90;;
65047;SDS011;52089;51.362;-2.384;2022-08-19T03:00:12;4.70;;;0.90;;
65047;SDS011;52089;51.362;-2.384;2022-08-19T03:03:55;3.53;;;0.80;;
65047;SDS011;52089;51.362;-2.384;2022-08-19T03:07:38;5.73;;;0.80;;
65047;SDS011;52089;51.362;-2.384;2022-08-19T03:11:22;4.03;;;0.90;;
65047;SDS011;52089;51.362;-2.384;2022-08-19T03:15:08;3.53;;;0.77;;
65047;SDS011;52089;51.362;-2.384;2022-08-19T03:18:50;5.50;;;0.90;;
65047;SDS011;52089;51.362;-2.384;2022-08-19T03:22:34;3.37;;;1.00;;
65047;SDS011;52089;51.362;-2.384;2022-08-19T03:26:16;4.47;;;1.00;;
65047;SDS011;52089;51.362;-2.384;2022-08-19T03:29:57;6.57;;;1.00;;
65047;SDS011;52089;51.362;-2.384;2022-08-19T03:33:41;5.13;;;1.00;;
65047;SDS011;52089;51.362;-2.384;2022-08-19T03:37:25;5.67;;;1.00;;
65047;SDS011;52089;51.362;-2.384;2022-08-19T03:41:09;6.53;;;1.40;;
65047;SDS011;52089;51.362;-2.384;2022-08-19T03:44:53;4.50;;;1.07;;
65047;SDS011;52089;51.362;-2.384;2022-08-19T03:48:35;5.73;;;1.23;;
65047;SDS011;52089;51.362;-2.384;2022-08-19T03:52:18;5.93;;;1.07;;
65047;SDS011;52089;51.362;-2.384;2022-08-19T03:56:00;10.27;;;1.30;;
65047;SDS011;52089;51.362;-2.384;2022-08-19T03:59:42;9.93;;;1.63;;
65047;SDS011;52089;51.362;-2.384;2022-08-19T04:03:25;9.53;;;1.67;;
65047;SDS011;52089;51.362;-2.384;2022-08-19T04:07:08;11.13;;;1.93;;
65047;SDS011;52089;51.362;-2.384;2022-08-19T04:10:51;11.47;;;1.80;;
65047;SDS011;52089;51.362;-2.384;2022-08-19T04:14:33;9.30;;;1.53;;
65047;SDS011;52089;51.362;-2.384;2022-08-19T04:18:15;9.93;;;1.87;;
65047;SDS011;52089;51.362;-2.384;2022-08-19T04:21:58;10.23;;;1.67;;
65047;SDS011;52089;51.362;-2.384;2022-08-19T04:25:41;10.83;;;1.87;;
65047;SDS011;52089;51.362;-2.384;2022-08-19T04:29:25;10.13;;;1.70;;
65047;SDS011;52089;51.362;-2.384;2022-08-19T04:33:08;8.67;;;1.40;;
65047;SDS011;52089;51.362;-2.384;2022-08-19T04:36:51;12.50;;;2.00;;
65047;SDS011;52089;51.362;-2.384;2022-08-19T04:40:39;15.07;;;1.83;;
65047;SDS011;52089;51.362;-2.384;2022-08-19T04:44:44;11.00;;;1.70;;
65047;SDS011;52089;51.362;-2.384;2022-08-19T04:48:26;11.03;;;1.77;;
65047;SDS011;52089;51.362;-2.384;2022-08-19T04:52:08;14.73;;;2.20;;
65047;SDS011;52089;51.362;-2.384;2022-08-19T04:55:50;15.27;;;2.20;;
65047;SDS011;52089;51.362;-2.384;2022-08-19T04:59:32;15.73;;;2.00;;
65047;SDS011;52089;51.362;-2.384;2022-08-19T05:03:15;14.23;;;2.00;;
65047;SDS011;52089;51.362;-2.384;2022-08-19T05:06:58;10.07;;;1.83;;
65047;SDS011;52089;51.362;-2.384;2022-08-19T05:10:41;12.37;;;2.10;;
65047;SDS011;52089;51.362;-2.384;2022-08-19T05:14:23;10.63;;;1.43;;
65047;SDS011;52089;51.362;-2.384;2022-08-19T05:18:05;11.60;;;1.90;;
65047;SDS011;52089;51.362;-2.384;2022-08-19T05:22:06;9.70;;;1.83;;
65047;SDS011;52089;51.362;-2.384;2022-08-19T05:26:06;14.50;;;2.10;;
65047;SDS011;52089;51.362;-2.384;2022-08-19T05:29:50;11.27;;;2.07;;
65047;SDS011;52089;51.362;-2.384;2022-08-19T05:33:32;13.77;;;2.50;;
65047;SDS011;52089;51.362;-2.384;2022-08-19T05:37:14;15.93;;;2.40;;
65047;SDS011;52089;51.362;-2.384;2022-08-19T05:40:56;9.30;;;2.37;;
65047;SDS011;52089;51.362;-2.384;2022-08-19T05:44:39;16.97;;;2.57;;
65047;SDS011;52089;51.362;-2.384;2022-08-19T05:48:25;11.67;;;2.33;;
65047;SDS011;52089;51.362;-2.384;2022-08-19T05:52:08;12.80;;;2.20;;
65047;SDS011;52089;51.362;-2.384;2022-08-19T05:55:52;13.43;;;2.13;;
65047;SDS011;52089;51.362;-2.384;2022-08-19T05:59:36;11.40;;;2.30;;
65047;SDS011;52089;51.362;-2.384;2022-08-19T06:03:19;12.70;;;2.90;;
65047;SDS011;52089;51.362;-2.384;2022-08-19T06:07:01;18.57;;;1.83;;
65047;SDS011;52089;51.362;-2.384;2022-08-19T06:10:53;13.13;;;2.50;;
65047;SDS011;52089;51.362;-2.384;2022-08-19T06:14:35;12.40;;;2.47;;
65047;SDS011;52089;51.362;-2.384;2022-08-19T06:18:22;12.93;;;2.37;;
65047;SDS011;52089;51.362;-2.384;2022-08-19T06:22:04;15.10;;;2.80;;
65047;SDS011;52089;51.362;-2.384;2022-08-19T06:25:47;15.17;;;2.80;;
65047;SDS011;52089;51.362;-2.384;2022-08-19T06:29:29;9.63;;;2.90;;
65047;SDS011;52089;51.362;-2.384;2022-08-19T06:33:12;14.77;;;3.10;;
65047;SDS011;52089;51.362;-2.384;2022-08-19T06:36:54;15.20;;;3.40;;
65047;SDS011;52089;51.362;-2.384;2022-08-19T06:40:37;12.70;;;2.77;;
65047;SDS011;52089;51.362;-2.384;2022-08-19T06:44:21;10.97;;;2.97;;
65047;SDS011;52089;51.362;-2.384;2022-08-19T06:48:06;11.73;;;2.97;;
65047;SDS011;52089;51.362;-2.384;2022-08-19T06:51:48;9.03;;;2.40;;
65047;SDS011;52089;51.362;-2.384;2022-08-19T06:55:32;10.40;;;2.53;;
65047;SDS011;52089;51.362;-2.384;2022-08-19T06:59:15;12.97;;;2.33;;
65047;SDS011;52089;51.362;-2.384;2022-08-19T07:03:04;12.15;;;2.45;;
65047;SDS011;52089;51.362;-2.384;2022-08-19T07:06:49;8.73;;;1.77;;
65047;SDS011;52089;51.362;-2.384;2022-08-19T07:10:42;8.47;;;2.13;;
65047;SDS011;52089;51.362;-2.384;2022-08-19T07:14:26;10.00;;;2.20;;
65047;SDS011;52089;51.362;-2.384;2022-08-19T07:18:08;9.40;;;1.90;;
65047;SDS011;52089;51.362;-2.384;2022-08-19T07:21:52;9.37;;;2.20;;
65047;SDS011;52089;51.362;-2.384;2022-08-19T07:25:35;9.83;;;1.77;;
65047;SDS011;52089;51.362;-2.384;2022-08-19T07:29:18;11.00;;;1.60;;
65047;SDS011;52089;51.362;-2.384;2022-08-19T07:36:50;12.40;;;1.33;;
65047;SDS011;52089;51.362;-2.384;2022-08-19T07:40:33;8.80;;;1.90;;
65047;SDS011;52089;51.362;-2.384;2022-08-19T07:44:15;9.53;;;1.53;;
65047;SDS011;52089;51.362;-2.384;2022-08-19T07:47:57;8.63;;;1.50;;
65047;SDS011;52089;51.362;-2.384;2022-08-19T07:51:40;9.53;;;1.43;;
65047;SDS011;52089;51.362;-2.384;2022-08-19T07:55:23;6.73;;;1.57;;
65047;SDS011;52089;51.362;-2.384;2022-08-19T08:03:04;7.97;;;1.80;;
65047;SDS011;52089;51.362;-2.384;2022-08-19T08:06:46;7.23;;;1.30;;
65047;SDS011;52089;51.362;-2.384;2022-08-19T08:10:47;11.03;;;1.67;;
65047;SDS011;52089;51.362;-2.384;2022-08-19T08:14:36;9.93;;;1.50;;
65047;SDS011;52089;51.362;-2.384;2022-08-19T08:18:24;14.70;;;2.20;;
65047;SDS011;52089;51.362;-2.384;2022-08-19T08:22:08;7.43;;;1.53;;
65047;SDS011;52089;51.362;-2.384;2022-08-19T08:26:11;9.03;;;1.47;;
65047;SDS011;52089;51.362;-2.384;2022-08-19T08:29:57;9.50;;;1.40;;
65047;SDS011;52089;51.362;-2.384;2022-08-19T08:33:43;7.77;;;1.20;;
65047;SDS011;52089;51.362;-2.384;2022-08-19T08:37:25;7.70;;;1.50;;
65047;SDS011;52089;51.362;-2.384;2022-08-19T08:45:13;9.20;;;1.58;;
65047;SDS011;52089;51.362;-2.384;2022-08-19T08:49:02;5.38;;;1.30;;
65047;SDS011;52089;51.362;-2.384;2022-08-19T08:52:49;8.50;;;1.45;;
65047;SDS011;52089;51.362;-2.384;2022-08-19T08:56:34;8.23;;;1.05;;
65047;SDS011;52089;51.362;-2.384;2022-08-19T09:00:21;6.88;;;1.30;;
65047;SDS011;52089;51.362;-2.384;2022-08-19T09:04:15;5.38;;;1.15;;
65047;SDS011;52089;51.362;-2.384;2022-08-19T09:08:19;5.18;;;1.10;;
65047;SDS011;52089;51.362;-2.384;2022-08-19T09:16:23;5.13;;;1.23;;
65047;SDS011;52089;51.362;-2.384;2022-08-19T09:23:51;6.55;;;1.10;;
65047;SDS011;52089;51.362;-2.384;2022-08-19T09:27:33;6.35;;;1.25;;
65047;SDS011;52089;51.362;-2.384;2022-08-19T09:31:25;5.20;;;1.23;;
65047;SDS011;52089;51.362;-2.384;2022-08-19T09:35:08;6.07;;;1.73;;
65047;SDS011;52089;51.362;-2.384;2022-08-19T09:38:52;6.38;;;1.60;;
65047;SDS011;52089;51.362;-2.384;2022-08-19T09:42:34;6.22;;;1.23;;
65047;SDS011;52089;51.362;-2.384;2022-08-19T09:46:17;5.63;;;1.17;;
65047;SDS011;52089;51.362;-2.384;2022-08-19T09:50:05;6.05;;;1.40;;
65047;SDS011;52089;51.362;-2.384;2022-08-19T09:53:51;3.90;;;1.30;;
65047;SDS011;52089;51.362;-2.384;2022-08-19T09:57:35;5.80;;;1.15;;
65047;SDS011;52089;51.362;-2.384;2022-08-19T10:01:18;6.30;;;1.60;;
65047;SDS011;52089;51.362;-2.384;2022-08-19T10:05:06;5.88;;;1.55;;
65047;SDS011;52089;51.362;-2.384;2022-08-19T10:09:07;6.78;;;1.45;;
65047;SDS011;52089;51.362;-2.384;2022-08-19T10:12:51;4.97;;;1.20;;
65047;SDS011;52089;51.362;-2.384;2022-08-19T10:16:33;6.25;;;1.40;;
65047;SDS011;52089;51.362;-2.384;2022-08-19T10:20:20;4.43;;;1.20;;
65047;SDS011;52089;51.362;-2.384;2022-08-19T10:24:04;6.20;;;1.63;;
65047;SDS011;52089;51.362;-2.384;2022-08-19T10:27:49;5.63;;;1.45;;
65047;SDS011;52089;51.362;-2.384;2022-08-19T10:31:32;7.22;;;1.98;;
65047;SDS011;52089;51.362;-2.384;2022-08-19T10:35:35;4.82;;;1.40;;
65047;SDS011;52089;51.362;-2.384;2022-08-19T10:39:36;9.00;;;1.95;;
65047;SDS011;52089;51.362;-2.384;2022-08-19T10:43:23;7.65;;;1.95;;
65047;SDS011;52089;51.362;-2.384;2022-08-19T10:47:06;7.07;;;1.48;;
65047;SDS011;52089;51.362;-2.384;2022-08-19T10:51:05;9.60;;;1.58;;
65047;SDS011;52089;51.362;-2.384;2022-08-19T10:55:06;7.38;;;1.98;;
65047;SDS011;52089;51.362;-2.384;2022-08-19T10:59:10;13.43;;;2.35;;
65047;SDS011;52089;51.362;-2.384;2022-08-19T11:02:53;7.28;;;1.77;;
65047;SDS011;52089;51.362;-2.384;2022-08-19T11:06:34;9.50;;;1.80;;
65047;SDS011;52089;51.362;-2.384;2022-08-19T11:10:17;5.53;;;1.20;;
65047;SDS011;52089;51.362;-2.384;2022-08-19T11:14:02;6.40;;;1.65;;
65047;SDS011;52089;51.362;-2.384;2022-08-19T11:17:44;10.25;;;1.70;;
65047;SDS011;52089;51.362;-2.384;2022-08-19T11:21:30;8.20;;;2.00;;
65047;SDS011;52089;51.362;-2.384;2022-08-19T11:25:14;9.27;;;1.80;;
65047;SDS011;52089;51.362;-2.384;2022-08-19T11:28:56;5.97;;;1.30;;
65047;SDS011;52089;51.362;-2.384;2022-08-19T11:32:41;6.30;;;1.75;;
65047;SDS011;52089;51.362;-2.384;2022-08-19T11:36:29;5.60;;;1.70;;
65047;SDS011;52089;51.362;-2.384;2022-08-19T11:40:12;8.95;;;1.75;;
65047;SDS011;52089;51.362;-2.384;2022-08-19T11:43:54;6.30;;;1.67;;
65047;SDS011;52089;51.362;-2.384;2022-08-19T11:47:37;5.20;;;1.80;;
65047;SDS011;52089;51.362;-2.384;2022-08-19T11:51:21;6.80;;;1.73;;
65047;SDS011;52089;51.362;-2.384;2022-08-19T11:55:05;8.95;;;1.90;;
65047;SDS011;52089;51.362;-2.384;2022-08-19T11:58:48;5.32;;;1.48;;
65047;SDS011;52089;51.362;-2.384;2022-08-19T12:02:30;5.00;;;1.70;;
65047;SDS011;52089;51.362;-2.384;2022-08-19T12:06:15;6.03;;;1.70;;
65047;SDS011;52089;51.362;-2.384;2022-08-19T12:09:59;6.43;;;1.65;;
65047;SDS011;52089;51.362;-2.384;2022-08-19T12:13:43;6.60;;;1.55;;
65047;SDS011;52089;51.362;-2.384;2022-08-19T12:17:27;6.22;;;1.27;;
65047;SDS011;52089;51.362;-2.384;2022-08-19T12:21:09;4.35;;;1.98;;
65047;SDS011;52089;51.362;-2.384;2022-08-19T12:24:53;4.75;;;1.40;;
65047;SDS011;52089;51.362;-2.384;2022-08-19T12:28:36;6.70;;;1.40;;
65047;SDS011;52089;51.362;-2.384;2022-08-19T12:32:18;11.25;;;1.70;;
65047;SDS011;52089;51.362;-2.384;2022-08-19T12:36:04;5.45;;;1.40;;
65047;SDS011;52089;51.362;-2.384;2022-08-19T12:39:48;7.30;;;1.55;;
65047;SDS011;52089;51.362;-2.384;2022-08-19T12:43:29;10.45;;;1.80;;
65047;SDS011;52089;51.362;-2.384;2022-08-19T12:47:12;7.20;;;1.40;;
65047;SDS011;52089;51.362;-2.384;2022-08-19T12:50:55;6.30;;;1.75;;
65047;SDS011;52089;51.362;-2.384;2022-08-19T12:54:37;5.18;;;1.30;;
65047;SDS011;52089;51.362;-2.384;2022-08-19T12:58:19;7.65;;;1.67;;
65047;SDS011;52089;51.362;-2.384;2022-08-19T13:02:07;12.53;;;1.70;;
65047;SDS011;52089;51.362;-2.384;2022-08-19T13:05:50;3.65;;;1.15;;
65047;SDS011;52089;51.362;-2.384;2022-08-19T13:09:32;8.45;;;1.67;;
65047;SDS011;52089;51.362;-2.384;2022-08-19T13:13:14;6.68;;;1.23;;
65047;SDS011;52089;51.362;-2.384;2022-08-19T13:16:56;8.05;;;1.45;;
65047;SDS011;52089;51.362;-2.384;2022-08-19T13:20:38;6.28;;;1.95;;
65047;SDS011;52089;51.362;-2.384;2022-08-19T13:24:33;8.15;;;1.85;;
65047;SDS011;52089;51.362;-2.384;2022-08-19T13:28:15;8.93;;;1.55;;
65047;SDS011;52089;51.362;-2.384;2022-08-19T13:31:59;7.00;;;1.80;;
65047;SDS011;52089;51.362;-2.384;2022-08-19T13:35:59;5.78;;;1.52;;
65047;SDS011;52089;51.362;-2.384;2022-08-19T13:39:42;12.57;;;1.92;;
65047;SDS011;52089;51.362;-2.384;2022-08-19T13:43:26;8.88;;;1.55;;
65047;SDS011;52089;51.362;-2.384;2022-08-19T13:47:08;9.10;;;1.67;;
65047;SDS011;52089;51.362;-2.384;2022-08-19T13:50:53;6.32;;;1.65;;
65047;SDS011;52089;51.362;-2.384;2022-08-19T13:54:35;7.22;;;1.83;;
65047;SDS011;52089;51.362;-2.384;2022-08-19T13:58:17;6.20;;;1.27;;
65047;SDS011;52089;51.362;-2.384;2022-08-19T14:02:00;10.18;;;1.65;;
65047;SDS011;52089;51.362;-2.384;2022-08-19T14:05:42;8.05;;;1.50;;
65047;SDS011;52089;51.362;-2.384;2022-08-19T14:09:23;5.97;;;1.65;;
65047;SDS011;52089;51.362;-2.384;2022-08-19T14:13:05;5.57;;;1.35;;
65047;SDS011;52089;51.362;-2.384;2022-08-19T14:16:48;18.58;;;2.28;;
65047;SDS011;52089;51.362;-2.384;2022-08-19T14:20:30;5.50;;;1.27;;
65047;SDS011;52089;51.362;-2.384;2022-08-19T14:24:14;4.75;;;1.10;;
65047;SDS011;52089;51.362;-2.384;2022-08-19T14:27:56;4.05;;;1.13;;
65047;SDS011;52089;51.362;-2.384;2022-08-19T14:31:39;4.40;;;1.30;;
65047;SDS011;52089;51.362;-2.384;2022-08-19T14:35:24;5.45;;;1.30;;
65047;SDS011;52089;51.362;-2.384;2022-08-19T14:39:08;4.72;;;1.85;;
65047;SDS011;52089;51.362;-2.384;2022-08-19T14:42:51;6.18;;;1.92;;
65047;SDS011;52089;51.362;-2.384;2022-08-19T14:46:40;4.43;;;1.02;;
65047;SDS011;52089;51.362;-2.384;2022-08-19T14:50:29;5.05;;;1.20;;
65047;SDS011;52089;51.362;-2.384;2022-08-19T14:54:11;13.07;;;1.20;;
65047;SDS011;52089;51.362;-2.384;2022-08-19T14:57:53;7.13;;;1.48;;
65047;SDS011;52089;51.362;-2.384;2022-08-19T15:01:37;3.28;;;0.95;;
65047;SDS011;52089;51.362;-2.384;2022-08-19T15:05:20;2.72;;;0.80;;
65047;SDS011;52089;51.362;-2.384;2022-08-19T15:09:02;3.75;;;0.90;;
65047;SDS011;52089;51.362;-2.384;2022-08-19T15:12:44;7.60;;;1.40;;
65047;SDS011;52089;51.362;-2.384;2022-08-19T15:16:31;5.47;;;1.00;;
65047;SDS011;52089;51.362;-2.384;2022-08-19T15:20:15;3.97;;;1.20;;
65047;SDS011;52089;51.362;-2.384;2022-08-19T15:23:59;2.25;;;0.73;;
65047;SDS011;52089;51.362;-2.384;2022-08-19T15:27:42;2.42;;;0.63;;
65047;SDS011;52089;51.362;-2.384;2022-08-19T15:31:24;4.40;;;1.00;;
65047;SDS011;52089;51.362;-2.384;2022-08-19T15:35:09;2.85;;;0.50;;
65047;SDS011;52089;51.362;-2.384;2022-08-19T15:38:51;2.35;;;0.80;;
65047;SDS011;52089;51.362;-2.384;2022-08-19T15:42:34;3.50;;;0.95;;
65047;SDS011;52089;51.362;-2.384;2022-08-19T15:46:19;2.67;;;0.73;;
65047;SDS011;52089;51.362;-2.384;2022-08-19T15:50:06;1.98;;;0.63;;
65047;SDS011;52089;51.362;-2.384;2022-08-19T15:53:51;3.35;;;0.50;;
65047;SDS011;52089;51.362;-2.384;2022-08-19T15:57:33;3.28;;;0.80;;
65047;SDS011;52089;51.362;-2.384;2022-08-19T16:01:34;2.05;;;0.63;;
65047;SDS011;52089;51.362;-2.384;2022-08-19T16:05:35;26.75;;;1.70;;
65047;SDS011;52089;51.362;-2.384;2022-08-19T16:09:35;1.25;;;0.65;;
65047;SDS011;52089;51.362;-2.384;2022-08-19T16:13:17;1.50;;;0.40;;
65047;SDS011;52089;51.362;-2.384;2022-08-19T16:16:59;2.30;;;0.90;;
65047;SDS011;52089;51.362;-2.384;2022-08-19T16:20:42;3.35;;;0.88;;
65047;SDS011;52089;51.362;-2.384;2022-08-19T16:24:25;19.10;;;3.35;;
65047;SDS011;52089;51.362;-2.384;2022-08-19T16:28:08;5.20;;;1.00;;
65047;SDS011;52089;51.362;-2.384;2022-08-19T16:31:50;4.28;;;0.90;;
65047;SDS011;52089;51.362;-2.384;2022-08-19T16:35:34;7.80;;;1.45;;
65047;SDS011;52089;51.362;-2.384;2022-08-19T16:39:16;5.90;;;1.13;;
65047;SDS011;52089;51.362;-2.384;2022-08-19T16:42:59;5.30;;;1.10;;
65047;SDS011;52089;51.362;-2.384;2022-08-19T16:46:43;3.70;;;0.70;;
65047;SDS011;52089;51.362;-2.384;2022-08-19T16:50:37;9.10;;;5.95;;
65047;SDS011;52089;51.362;-2.384;2022-08-19T16:54:30;2.72;;;0.70;;
65047;SDS011;52089;51.362;-2.384;2022-08-19T16:58:12;4.65;;;0.55;;
65047;SDS011;52089;51.362;-2.384;2022-08-19T17:01:55;4.13;;;1.17;;
65047;SDS011;52089;51.362;-2.384;2022-08-19T17:05:44;9.45;;;4.20;;
65047;SDS011;52089;51.362;-2.384;2022-08-19T17:09:27;5.18;;;1.13;;
65047;SDS011;52089;51.362;-2.384;2022-08-19T17:13:12;2.13;;;0.73;;
65047;SDS011;52089;51.362;-2.384;2022-08-19T17:16:55;4.35;;;0.80;;
65047;SDS011;52089;51.362;-2.384;2022-08-19T17:20:37;2.33;;;0.68;;
65047;SDS011;52089;51.362;-2.384;2022-08-19T17:24:19;3.08;;;1.10;;
65047;SDS011;52089;51.362;-2.384;2022-08-19T17:28:05;6.47;;;1.00;;
65047;SDS011;52089;51.362;-2.384;2022-08-19T17:31:52;4.72;;;0.80;;
65047;SDS011;52089;51.362;-2.384;2022-08-19T17:35:34;3.97;;;0.50;;
65047;SDS011;52089;51.362;-2.384;2022-08-19T17:39:15;4.32;;;0.70;;
65047;SDS011;52089;51.362;-2.384;2022-08-19T17:42:57;3.50;;;0.60;;
65047;SDS011;52089;51.362;-2.384;2022-08-19T17:46:39;3.53;;;0.63;;
65047;SDS011;52089;51.362;-2.384;2022-08-19T17:50:21;7.57;;;0.70;;
65047;SDS011;52089;51.362;-2.384;2022-08-19T17:54:03;5.70;;;1.10;;
65047;SDS011;52089;51.362;-2.384;2022-08-19T17:57:46;7.65;;;3.00;;
65047;SDS011;52089;51.362;-2.384;2022-08-19T18:01:29;4.73;;;0.97;;
65047;SDS011;52089;51.362;-2.384;2022-08-19T18:05:32;4.83;;;1.13;;
65047;SDS011;52089;51.362;-2.384;2022-08-19T18:09:24;4.13;;;1.05;;
65047;SDS011;52089;51.362;-2.384;2022-08-19T18:13:07;5.23;;;1.27;;
65047;SDS011;52089;51.362;-2.384;2022-08-19T18:16:58;6.37;;;1.10;;
65047;SDS011;52089;51.362;-2.384;2022-08-19T18:20:42;3.83;;;0.90;;
65047;SDS011;52089;51.362;-2.384;2022-08-19T18:24:24;5.90;;;0.90;;
65047;SDS011;52089;51.362;-2.384;2022-08-19T18:28:06;5.40;;;0.90;;
65047;SDS011;52089;51.362;-2.384;2022-08-19T18:31:48;8.57;;;1.50;;
65047;SDS011;52089;51.362;-2.384;2022-08-19T18:35:30;5.70;;;0.70;;
65047;SDS011;52089;51.362;-2.384;2022-08-19T18:39:12;5.90;;;1.90;;
65047;SDS011;52089;51.362;-2.384;2022-08-19T18:43:13;4.33;;;0.93;;
65047;SDS011;52089;51.362;-2.384;2022-08-19T18:47:07;7.43;;;1.03;;
65047;SDS011;52089;51.362;-2.384;2022-08-19T18:54:49;6.53;;;1.00;;
65047;SDS011;52089;51.362;-2.384;2022-08-19T18:58:31;7.10;;;1.10;;
65047;SDS011;52089;51.362;-2.384;2022-08-19T19:02:15;6.43;;;1.00;;
65047;SDS011;52089;51.362;-2.384;2022-08-19T19:05:58;6.00;;;0.80;;
65047;SDS011;52089;51.362;-2.384;2022-08-19T19:09:40;5.23;;;0.97;;
65047;SDS011;52089;51.362;-2.384;2022-08-19T19:13:22;8.57;;;1.40;;
65047;SDS011;52089;51.362;-2.384;2022-08-19T19:17:05;7.53;;;1.60;;
65047;SDS011;52089;51.362;-2.384;2022-08-19T19:20:51;6.50;;;1.03;;
65047;SDS011;52089;51.362;-2.384;2022-08-19T19:24:33;5.37;;;0.90;;
65047;SDS011;52089;51.362;-2.384;2022-08-19T19:28:21;5.90;;;1.10;;
65047;SDS011;52089;51.362;-2.384;2022-08-19T19:32:10;4.17;;;0.77;;
65047;SDS011;52089;51.362;-2.384;2022-08-19T19:35:58;4.78;;;0.70;;
65047;SDS011;52089;51.362;-2.384;2022-08-19T19:39:40;5.60;;;0.83;;
65047;SDS011;52089;51.362;-2.384;2022-08-19T19:43:27;4.33;;;0.87;;
65047;SDS011;52089;51.362;-2.384;2022-08-19T19:47:20;4.17;;;1.20;;
65047;SDS011;52089;51.362;-2.384;2022-08-19T19:51:04;4.23;;;0.90;;
65047;SDS011;52089;51.362;-2.384;2022-08-19T19:54:46;5.00;;;0.63;;
65047;SDS011;52089;51.362;-2.384;2022-08-19T19:58:29;4.77;;;0.60;;
65047;SDS011;52089;51.362;-2.384;2022-08-19T20:02:12;4.70;;;0.73;;
65047;SDS011;52089;51.362;-2.384;2022-08-19T20:05:57;4.03;;;0.80;;
65047;SDS011;52089;51.362;-2.384;2022-08-19T20:09:39;4.63;;;0.70;;
65047;SDS011;52089;51.362;-2.384;2022-08-19T20:13:39;3.72;;;0.60;;
65047;SDS011;52089;51.362;-2.384;2022-08-19T20:17:21;5.43;;;0.63;;
65047;SDS011;52089;51.362;-2.384;2022-08-19T20:21:03;5.17;;;0.80;;
65047;SDS011;52089;51.362;-2.384;2022-08-19T20:24:45;3.43;;;0.60;;
65047;SDS011;52089;51.362;-2.384;2022-08-19T20:28:28;4.53;;;0.70;;
65047;SDS011;52089;51.362;-2.384;2022-08-19T20:32:10;6.77;;;2.17;;
65047;SDS011;52089;51.362;-2.384;2022-08-19T20:35:53;7.83;;;1.00;;
65047;SDS011;52089;51.362;-2.384;2022-08-19T20:39:34;5.90;;;0.90;;
65047;SDS011;52089;51.362;-2.384;2022-08-19T20:43:17;3.07;;;0.67;;
65047;SDS011;52089;51.362;-2.384;2022-08-19T20:46:59;4.37;;;0.70;;
65047;SDS011;52089;51.362;-2.384;2022-08-19T20:50:44;8.67;;;2.10;;
65047;SDS011;52089;51.362;-2.384;2022-08-19T20:54:26;4.87;;;0.70;;
65047;SDS011;52089;51.362;-2.384;2022-08-19T20:58:08;7.23;;;0.90;;
65047;SDS011;52089;51.362;-2.384;2022-08-19T21:01:52;6.83;;;0.70;;
65047;SDS011;52089;51.362;-2.384;2022-08-19T21:05:33;6.00;;;1.00;;
65047;SDS011;52089;51.362;-2.384;2022-08-19T21:09:16;6.00;;;0.90;;
65047;SDS011;52089;51.362;-2.384;2022-08-19T21:12:58;5.00;;;0.73;;
65047;SDS011;52089;51.362;-2.384;2022-08-19T21:16:40;6.70;;;1.00;;
65047;SDS011;52089;51.362;-2.384;2022-08-19T21:20:22;7.37;;;1.03;;
65047;SDS011;52089;51.362;-2.384;2022-08-19T21:24:05;3.37;;;0.90;;
65047;SDS011;52089;51.362;-2.384;2022-08-19T21:27:46;8.53;;;0.90;;
65047;SDS011;52089;51.362;-2.384;2022-08-19T21:31:28;5.13;;;1.13;;
65047;SDS011;52089;51.362;-2.384;2022-08-19T21:35:10;6.73;;;1.30;;
65047;SDS011;52089;51.362;-2.384;2022-08-19T21:38:52;7.23;;;1.23;;
65047;SDS011;52089;51.362;-2.384;2022-08-19T21:42:34;7.57;;;1.33;;
65047;SDS011;52089;51.362;-2.384;2022-08-19T21:46:16;6.27;;;0.93;;
65047;SDS011;52089;51.362;-2.384;2022-08-19T21:49:58;7.67;;;1.10;;
65047;SDS011;52089;51.362;-2.384;2022-08-19T21:53:40;6.83;;;1.47;;
65047;SDS011;52089;51.362;-2.384;2022-08-19T21:57:24;7.33;;;1.00;;
65047;SDS011;52089;51.362;-2.384;2022-08-19T22:01:06;8.70;;;0.80;;
65047;SDS011;52089;51.362;-2.384;2022-08-19T22:04:49;6.93;;;0.97;;
65047;SDS011;52089;51.362;-2.384;2022-08-19T22:08:32;5.53;;;1.03;;
65047;SDS011;52089;51.362;-2.384;2022-08-19T22:12:22;9.07;;;1.50;;
65047;SDS011;52089;51.362;-2.384;2022-08-19T22:16:06;5.97;;;0.90;;
65047;SDS011;52089;51.362;-2.384;2022-08-19T22:19:49;7.40;;;1.00;;
65047;SDS011;52089;51.362;-2.384;2022-08-19T22:23:32;9.83;;;1.27;;
65047;SDS011;52089;51.362;-2.384;2022-08-19T22:27:14;12.27;;;1.10;;
65047;SDS011;52089;51.362;-2.384;2022-08-19T22:30:57;5.87;;;1.10;;
65047;SDS011;52089;51.362;-2.384;2022-08-19T22:34:39;6.60;;;1.50;;
65047;SDS011;52089;51.362;-2.384;2022-08-19T22:38:21;8.27;;;1.53;;
65047;SDS011;52089;51.362;-2.384;2022-08-19T22:42:04;4.70;;;0.90;;